Munlochy, United Kingdom
Current Conditions -  °F | °C
As of 8:20 AM on Saturday 29 Nov 2014 (Local Time) from EGPE Reporting Station
Light Fog Light Fog  
Wind Chill: 37°   Ceiling: Unl
Heat Index: 37°   Visibility: 4mi
Dew Point: 36°   Wind: 2mph
Humidity: 93%   Direction: 250°WSW
Pressure: 29.85"   Gusts: NA
Location:  57.55°N, 4.26°W
Report Text: EGPE 290820Z 25002KT 6000 0900W R23/P1500 BCFG FEW001 SCT036 03/02 Q1011
Loading
Personal Weather Stations






























Interactive Weather Map New forecast layout! Learn more

10-Day Weather Forecast

Advertisements
Track Severe Weather on mobile